Time;durP1;ratioP1;P1;durP2;ratioP2;P2;SDS_P1;SDS_P2;PMS_P1;PMS_P2;Temp;Humidity;BMP_temperature;BMP_pressure;BME280_temperature;BME280_humidity;BME280_pressure;Samples;Min_cycle;Max_cycle;Signal;HPM_P1;HPM_P2
2023/01/08 00:00:54;;;;;;;24.90;13.60;;;;;;;-7.08;100.00;100874.20;109864;1281;22980;-67
2023/01/08 00:03:22;;;;;;;24.60;12.50;;;;;;;-6.97;100.00;100879.47;109905;1281;22340;-67
2023/01/08 00:05:49;;;;;;;23.70;11.20;;;;;;;-6.92;100.00;100881.16;109905;1281;23101;-66
2023/01/08 00:08:16;;;;;;;24.50;12.40;;;;;;;-6.90;100.00;100883.29;109867;1282;22282;-67
2023/01/08 00:10:43;;;;;;;23.40;12.90;;;;;;;-6.96;100.00;100881.48;109901;1281;22363;-66
2023/01/08 00:13:10;;;;;;;21.60;11.90;;;;;;;-7.01;100.00;100880.66;109865;1282;22189;-67
2023/01/08 00:15:37;;;;;;;22.90;12.20;;;;;;;-7.02;100.00;100879.70;109872;1282;22185;-67
2023/01/08 00:18:04;;;;;;;24.00;12.60;;;;;;;-7.05;100.00;100871.46;109922;1281;22334;-66
2023/01/08 00:20:32;;;;;;;30.40;14.00;;;;;;;-7.10;100.00;100872.94;109902;1282;22389;-66
2023/01/08 00:22:59;;;;;;;30.70;14.00;;;;;;;-7.11;100.00;100871.15;109897;1281;22379;-67
2023/01/08 00:25:26;;;;;;;31.60;14.50;;;;;;;-7.09;100.00;100871.85;109963;1281;22403;-67
2023/01/08 00:27:53;;;;;;;25.20;13.40;;;;;;;-7.05;100.00;100870.06;109930;1281;22230;-66
2023/01/08 00:30:20;;;;;;;31.70;15.40;;;;;;;-6.99;100.00;100870.13;107971;1281;22540;-66
2023/01/08 00:32:47;;;;;;;24.80;13.80;;;;;;;-6.99;100.00;100869.59;107101;1281;23373;-66
2023/01/08 00:35:14;;;;;;;26.80;13.80;;;;;;;-6.98;100.00;100866.02;107211;1281;24201;-66
2023/01/08 00:37:41;;;;;;;26.10;13.50;;;;;;;-7.02;100.00;100861.70;107072;1281;22551;-67
2023/01/08 00:40:08;;;;;;;29.30;13.70;;;;;;;-7.06;100.00;100862.75;107047;1281;23827;-67
2023/01/08 00:42:35;;;;;;;34.60;14.00;;;;;;;-7.06;100.00;100862.55;107325;1281;24237;-66
2023/01/08 00:45:03;;;;;;;31.00;14.50;;;;;;;-7.03;100.00;100863.39;107241;1282;22542;-67
2023/01/08 00:47:30;;;;;;;28.80;14.30;;;;;;;-6.98;100.00;100867.39;107291;1282;24209;-66
2023/01/08 00:49:57;;;;;;;27.80;14.50;;;;;;;-6.93;100.00;100862.88;107217;1281;22578;-67
2023/01/08 00:52:24;;;;;;;32.20;15.90;;;;;;;-6.89;100.00;100858.80;106872;1281;25653;-67
2023/01/08 00:54:52;;;;;;;29.90;15.90;;;;;;;-6.91;100.00;100851.77;107286;1281;25231;-66
2023/01/08 00:57:19;;;;;;;29.20;14.70;;;;;;;-6.93;100.00;100848.89;107107;1281;23352;-66
2023/01/08 00:59:46;;;;;;;30.20;14.40;;;;;;;-6.91;100.00;100850.92;107294;1281;22537;-66
2023/01/08 01:02:13;;;;;;;30.10;13.80;;;;;;;-6.88;100.00;100850.75;107194;1280;22598;-66
2023/01/08 01:04:40;;;;;;;26.70;13.90;;;;;;;-6.83;100.00;100850.33;107234;1281;23411;-66
2023/01/08 01:07:07;;;;;;;27.50;13.20;;;;;;;-6.81;100.00;100852.98;107301;1281;25317;-66
2023/01/08 01:09:34;;;;;;;26.20;13.60;;;;;;;-6.81;100.00;100851.42;107132;1281;24203;-66
2023/01/08 01:12:01;;;;;;;22.40;12.50;;;;;;;-6.83;100.00;100854.59;106903;1281;23032;-66
2023/01/08 01:14:28;;;;;;;23.00;12.10;;;;;;;-6.86;100.00;100855.19;107229;1281;25228;-65
2023/01/08 01:16:55;;;;;;;21.50;11.20;;;;;;;-6.85;100.00;100858.48;107052;1273;22533;-66
2023/01/08 01:19:22;;;;;;;22.90;11.90;;;;;;;-6.87;100.00;100856.36;106866;1281;22525;-66
2023/01/08 01:21:50;;;;;;;23.30;11.60;;;;;;;-6.93;100.00;100847.16;107075;1281;22558;-66
2023/01/08 01:24:17;;;;;;;23.60;11.60;;;;;;;-7.00;100.00;100845.98;107256;1281;25161;-66
2023/01/08 01:26:44;;;;;;;21.80;10.90;;;;;;;-6.99;100.00;100843.48;107296;1281;23583;-66
2023/01/08 01:29:11;;;;;;;21.30;11.10;;;;;;;-6.98;100.00;100843.70;107364;1281;22560;-66
2023/01/08 01:31:38;;;;;;;22.00;10.90;;;;;;;-6.97;100.00;100843.66;107215;1281;22528;-66
2023/01/08 01:34:05;;;;;;;19.30;10.00;;;;;;;-6.95;100.00;100845.61;107385;1281;22539;-66
2023/01/08 01:36:32;;;;;;;15.90;9.30;;;;;;;-6.94;100.00;100842.15;107228;1281;24291;-66
2023/01/08 01:38:59;;;;;;;17.20;9.10;;;;;;;-6.92;100.00;100847.77;107211;1282;25340;-66
2023/01/08 01:41:26;;;;;;;19.60;8.80;;;;;;;-6.90;100.00;100850.27;107169;1281;22540;-66
2023/01/08 01:43:54;;;;;;;17.00;8.90;;;;;;;-6.87;100.00;100848.36;107222;1281;22542;-66
2023/01/08 01:46:38;;;;;;;19.10;9.50;;;;;;;-6.80;100.00;100850.61;107160;1280;23910;-66
2023/01/08 01:49:10;;;;;;;19.80;9.30;;;;;;;-6.81;100.00;100854.05;107173;1282;22833;-66
2023/01/08 01:51:38;;;;;;;17.00;8.60;;;;;;;-6.83;100.00;100854.76;107145;1282;24248;-65
2023/01/08 01:54:06;;;;;;;19.10;10.00;;;;;;;-6.85;100.00;100853.91;107127;1282;22548;-66
2023/01/08 01:56:33;;;;;;;21.00;10.00;;;;;;;-6.83;100.00;100854.56;106991;1281;22543;-66
2023/01/08 01:59:00;;;;;;;18.80;10.10;;;;;;;-6.82;100.00;100853.81;107048;1282;22753;-66
2023/01/08 02:01:27;;;;;;;16.90;9.00;;;;;;;-6.85;100.00;100855.29;107192;1282;22625;-66
2023/01/08 02:03:54;;;;;;;16.30;9.10;;;;;;;-6.89;100.00;100855.86;107097;1281;22569;-66
2023/01/08 02:06:31;;;;;;;19.80;9.90;;;;;;;-6.92;100.00;100855.23;107207;1276;25319;-66
2023/01/08 02:09:32;;;;;;;15.80;8.70;;;;;;;-6.93;100.00;100850.89;107163;1281;24209;-66
2023/01/08 02:12:15;;;;;;;16.90;9.00;;;;;;;-6.91;100.00;100848.73;107100;1280;22531;-66
2023/01/08 02:15:07;;;;;;;19.50;9.50;;;;;;;-6.87;100.00;100846.97;109931;1281;22396;-67
2023/01/08 02:17:36;;;;;;;16.80;8.80;;;;;;;-6.86;100.00;100845.13;109847;1282;22301;-67
2023/01/08 02:20:17;;;;;;;21.90;10.50;;;;;;;-6.86;100.00;100841.25;109832;1281;22220;-67
2023/01/08 02:23:04;;;;;;;19.30;10.00;;;;;;;-6.84;100.00;100837.40;109844;1282;22889;-67
2023/01/08 02:26:10;;;;;;;18.20;9.40;;;;;;;-6.86;100.00;100840.03;107237;1282;24195;-66
2023/01/08 02:28:40;;;;;;;19.00;9.60;;;;;;;-6.85;100.00;100848.95;106623;1288;22653;-66
2023/01/08 02:31:07;;;;;;;18.40;9.50;;;;;;;-6.81;100.00;100851.19;107085;1281;25310;-66
2023/01/08 02:33:34;;;;;;;18.40;9.80;;;;;;;-6.75;100.00;100846.29;106993;1282;24382;-66
2023/01/08 02:36:25;;;;;;;17.80;10.00;;;;;;;-6.77;100.00;100845.89;106966;1282;22569;-66
2023/01/08 02:39:10;;;;;;;19.00;10.50;;;;;;;-6.80;100.00;100844.73;108996;1281;22849;-66
2023/01/08 02:41:43;;;;;;;22.20;12.10;;;;;;;-6.80;100.00;100840.36;109933;1281;22507;-67
2023/01/08 02:44:11;;;;;;;21.10;10.80;;;;;;;-6.77;100.00;100838.13;109857;1282;23064;-67
2023/01/08 02:46:38;;;;;;;17.50;10.60;;;;;;;-6.78;100.00;100834.94;109834;1282;23022;-67
2023/01/08 02:49:08;;;;;;;24.50;13.40;;;;;;;-6.87;100.00;100835.31;109795;1281;23072;-67
2023/01/08 02:51:44;;;;;;;22.70;12.50;;;;;;;-7.00;100.00;100834.55;109846;1281;22316;-66
2023/01/08 02:54:13;;;;;;;24.20;13.20;;;;;;;-7.15;100.00;100837.41;109811;1282;22675;-67
2023/01/08 02:56:43;;;;;;;23.30;12.60;;;;;;;-7.24;100.00;100845.14;109857;1276;22383;-66
2023/01/08 02:59:10;;;;;;;23.10;11.90;;;;;;;-7.26;100.00;100849.68;109843;1277;22217;-66
2023/01/08 03:01:38;;;;;;;26.40;12.00;;;;;;;-7.22;100.00;100850.52;109848;1282;22295;-67
2023/01/08 03:04:23;;;;;;;23.80;13.40;;;;;;;-7.23;100.00;100851.38;109898;1281;23412;-66
2023/01/08 03:06:50;;;;;;;27.30;13.30;;;;;;;-7.31;100.00;100853.27;109847;1281;22417;-66
2023/01/08 03:09:17;;;;;;;23.80;12.80;;;;;;;-7.35;100.00;100855.55;109818;1281;22215;-66
2023/01/08 03:11:44;;;;;;;21.30;12.00;;;;;;;-7.31;100.00;100849.05;109936;1281;22931;-67
2023/01/08 03:14:17;;;;;;;24.90;12.80;;;;;;;-7.35;100.00;100857.48;109955;1281;22384;-66
2023/01/08 03:16:46;;;;;;;48.80;22.80;;;;;;;-7.42;100.00;100863.41;109909;1281;22235;-66
2023/01/08 03:19:21;;;;;;;24.30;12.70;;;;;;;-7.45;100.00;100859.14;109880;1281;22458;-67
2023/01/08 03:21:48;;;;;;;27.30;13.70;;;;;;;-7.41;100.00;100863.31;109933;1281;22341;-66
2023/01/08 03:24:17;;;;;;;29.50;13.60;;;;;;;-7.43;100.00;100864.02;109878;1281;22324;-67
2023/01/08 03:26:44;;;;;;;36.10;15.90;;;;;;;-7.45;100.00;100861.54;108335;1281;22625;-66
2023/01/08 03:29:13;;;;;;;32.00;15.40;;;;;;;-7.43;100.00;100858.40;106988;1282;22533;-66
2023/01/08 03:31:40;;;;;;;29.40;14.60;;;;;;;-7.38;100.00;100856.77;107159;1280;24326;-66
2023/01/08 03:34:07;;;;;;;31.20;14.10;;;;;;;-7.41;100.00;100856.11;107049;1281;25380;-66
2023/01/08 03:36:34;;;;;;;28.30;14.00;;;;;;;-7.50;100.00;100856.55;106029;1281;23735;-66
2023/01/08 03:39:16;;;;;;;31.30;15.70;;;;;;;-7.62;100.00;100851.32;106403;1281;22587;-66
2023/01/08 03:41:43;;;;;;;32.60;15.00;;;;;;;-7.64;100.00;100849.56;106095;1281;26188;-66
2023/01/08 03:44:10;;;;;;;30.60;14.50;;;;;;;-7.63;100.00;100848.55;105979;1281;23133;-66
2023/01/08 03:46:39;;;;;;;30.40;13.10;;;;;;;-7.58;100.00;100849.94;106393;1279;23685;-66
2023/01/08 03:49:06;;;;;;;28.30;13.00;;;;;;;-7.52;100.00;100848.38;106203;1274;22592;-66
2023/01/08 03:51:44;;;;;;;30.00;12.80;;;;;;;-7.47;100.00;100853.05;107059;1281;22758;-66
2023/01/08 03:54:19;;;;;;;31.80;14.40;;;;;;;-7.45;100.00;100852.59;107065;1281;22529;-66
2023/01/08 03:56:46;;;;;;;27.30;12.40;;;;;;;-7.43;100.00;100851.48;107230;1281;26137;-66
2023/01/08 03:59:14;;;;;;;29.00;14.00;;;;;;;-7.39;100.00;100854.53;107095;1282;22523;-66
2023/01/08 04:01:41;;;;;;;26.40;12.60;;;;;;;-7.33;100.00;100853.45;107073;1281;23477;-66
2023/01/08 04:04:09;;;;;;;29.10;13.60;;;;;;;-7.29;100.00;100853.50;107179;1281;22641;-66
2023/01/08 04:06:36;;;;;;;28.10;13.40;;;;;;;-7.23;100.00;100855.06;107049;1281;22553;-66
2023/01/08 04:09:03;;;;;;;27.60;12.70;;;;;;;-7.20;100.00;100858.55;107046;1281;22613;-66
2023/01/08 04:11:30;;;;;;;27.00;13.10;;;;;;;-7.16;100.00;100859.54;107157;1281;22573;-66
2023/01/08 04:13:57;;;;;;;27.40;13.30;;;;;;;-7.09;100.00;100857.03;107313;1281;24260;-66
2023/01/08 04:16:24;;;;;;;26.30;12.30;;;;;;;-7.04;100.00;100853.61;107270;1281;22858;-66
2023/01/08 04:18:51;;;;;;;24.90;11.90;;;;;;;-7.01;100.00;100852.84;107139;1281;22629;-66
2023/01/08 04:21:19;;;;;;;27.60;13.10;;;;;;;-7.02;100.00;100852.69;107264;1281;22549;-66
2023/01/08 04:23:46;;;;;;;25.20;12.40;;;;;;;-6.99;100.00;100858.16;107076;1282;23906;-66
2023/01/08 04:26:13;;;;;;;25.20;12.40;;;;;;;-7.01;100.00;100859.88;107092;1282;22552;-66
2023/01/08 04:28:40;;;;;;;26.20;12.30;;;;;;;-7.01;100.00;100858.61;107253;1281;25450;-66
2023/01/08 04:31:07;;;;;;;27.20;12.60;;;;;;;-6.98;100.00;100859.42;107203;1281;22717;-67
2023/01/08 04:33:34;;;;;;;25.90;12.20;;;;;;;-7.00;100.00;100861.17;106893;1281;22608;-67
2023/01/08 04:36:02;;;;;;;27.70;13.50;;;;;;;-6.99;100.00;100865.50;107204;1281;24536;-66
2023/01/08 04:38:29;;;;;;;26.80;13.10;;;;;;;-7.00;100.00;100865.10;107065;1282;22532;-66
2023/01/08 04:40:57;;;;;;;24.90;11.50;;;;;;;-7.03;100.00;100864.83;107160;1282;25415;-66
2023/01/08 04:43:24;;;;;;;26.30;12.20;;;;;;;-7.06;100.00;100862.80;107290;1278;22558;-66
2023/01/08 04:45:51;;;;;;;27.50;13.10;;;;;;;-7.08;100.00;100863.98;107052;1282;22638;-66
2023/01/08 04:48:18;;;;;;;26.90;13.00;;;;;;;-7.08;100.00;100865.23;107074;1281;22601;-66
2023/01/08 04:50:45;;;;;;;29.30;12.30;;;;;;;-7.08;100.00;100868.38;108236;1281;22257;-67
2023/01/08 04:53:12;;;;;;;26.00;12.80;;;;;;;-7.07;100.00;100868.15;109894;1281;22430;-67
2023/01/08 04:55:39;;;;;;;30.10;13.30;;;;;;;-7.03;100.00;100871.02;109855;1281;23233;-67
2023/01/08 04:58:06;;;;;;;26.90;12.40;;;;;;;-6.99;100.00;100867.84;109948;1280;22233;-66
2023/01/08 05:00:33;;;;;;;29.60;13.20;;;;;;;-6.96;100.00;100870.74;109909;1281;22299;-66
2023/01/08 05:03:00;;;;;;;23.90;12.60;;;;;;;-6.93;100.00;100878.59;109906;1281;22334;-67
2023/01/08 05:05:28;;;;;;;24.70;11.90;;;;;;;-6.89;100.00;100879.88;109888;1281;22211;-67
2023/01/08 05:07:55;;;;;;;25.50;11.80;;;;;;;-6.87;100.00;100877.54;109872;1281;22605;-67
2023/01/08 05:10:22;;;;;;;25.40;14.00;;;;;;;-6.87;100.00;100876.95;109887;1281;22384;-67
2023/01/08 05:12:49;;;;;;;25.30;13.60;;;;;;;-6.85;100.00;100875.45;109920;1281;23096;-67
2023/01/08 05:15:16;;;;;;;22.80;11.40;;;;;;;-6.90;100.00;100877.58;109852;1281;22200;-67
2023/01/08 05:17:43;;;;;;;26.40;12.30;;;;;;;-6.89;100.00;100881.45;109868;1280;22205;-66
2023/01/08 05:20:10;;;;;;;28.50;13.30;;;;;;;-6.88;100.00;100881.15;109889;1280;22532;-67
2023/01/08 05:22:37;;;;;;;24.70;12.50;;;;;;;-6.85;100.00;100876.67;109935;1281;22389;-67
2023/01/08 05:25:05;;;;;;;25.80;12.80;;;;;;;-6.87;100.00;100881.55;109879;1281;22267;-67
2023/01/08 05:27:31;;;;;;;24.30;12.20;;;;;;;-6.86;100.00;100882.77;109857;1281;22724;-67
2023/01/08 05:29:58;;;;;;;26.60;11.90;;;;;;;-6.85;100.00;100883.69;109838;1281;23142;-67
2023/01/08 05:32:25;;;;;;;25.70;13.30;;;;;;;-6.81;100.00;100881.10;110206;1270;22459;-67
2023/01/08 05:34:52;;;;;;;25.00;12.10;;;;;;;-6.76;100.00;100882.15;110161;1277;22410;-67
2023/01/08 05:37:19;;;;;;;26.20;13.00;;;;;;;-6.73;100.00;100884.95;110166;1277;23310;-67
2023/01/08 05:39:46;;;;;;;29.10;12.50;;;;;;;-6.72;100.00;100884.51;110131;1278;22386;-67
2023/01/08 05:42:13;;;;;;;30.00;13.70;;;;;;;-6.72;100.00;100884.98;110146;1277;22209;-67
2023/01/08 05:44:40;;;;;;;27.80;14.00;;;;;;;-6.71;100.00;100886.22;110130;1277;22315;-67
2023/01/08 05:47:07;;;;;;;26.40;13.40;;;;;;;-6.68;100.00;100887.52;110150;1277;22284;-67
2023/01/08 05:49:34;;;;;;;27.20;13.10;;;;;;;-6.66;100.00;100888.95;110188;1277;22225;-66
2023/01/08 05:52:01;;;;;;;27.40;13.00;;;;;;;-6.69;100.00;100889.34;110228;1270;23187;-67
2023/01/08 05:54:28;;;;;;;27.40;14.00;;;;;;;-6.68;100.00;100892.75;110184;1277;23600;-67
2023/01/08 05:56:55;;;;;;;29.10;14.50;;;;;;;-6.63;100.00;100903.48;110175;1273;22211;-67
2023/01/08 05:59:22;;;;;;;27.60;13.80;;;;;;;-6.62;100.00;100903.42;110177;1277;22409;-67
2023/01/08 06:01:49;;;;;;;26.50;13.30;;;;;;;-6.64;100.00;100898.26;110219;1277;22218;-67
2023/01/08 06:04:16;;;;;;;26.50;13.40;;;;;;;-6.63;100.00;100896.76;110165;1272;22316;-68
2023/01/08 06:06:43;;;;;;;30.70;14.80;;;;;;;-6.61;100.00;100893.41;108902;1276;22527;-67
2023/01/08 06:09:10;;;;;;;30.40;15.30;;;;;;;-6.60;100.00;100893.85;107469;1277;25225;-66
2023/01/08 06:11:37;;;;;;;31.90;15.20;;;;;;;-6.59;100.00;100897.48;107701;1277;22561;-66
2023/01/08 06:14:04;;;;;;;26.20;13.60;;;;;;;-6.57;100.00;100894.08;107446;1277;22530;-66
2023/01/08 06:16:31;;;;;;;29.50;13.70;;;;;;;-6.57;100.00;100892.52;107427;1277;24199;-66
2023/01/08 06:18:57;;;;;;;30.20;14.60;;;;;;;-6.58;100.00;100892.11;107440;1277;22581;-66
2023/01/08 06:21:24;;;;;;;30.40;15.00;;;;;;;-6.61;100.00;100890.43;107885;1277;24186;-67
2023/01/08 06:23:51;;;;;;;29.70;15.10;;;;;;;-6.62;100.00;100890.18;107523;1277;22534;-66
2023/01/08 06:26:18;;;;;;;32.90;16.70;;;;;;;-6.62;100.00;100890.69;107499;1270;22706;-67
2023/01/08 06:28:45;;;;;;;30.40;16.50;;;;;;;-6.58;100.00;100890.70;107646;1272;22590;-66
2023/01/08 06:31:12;;;;;;;30.80;15.10;;;;;;;-6.58;100.00;100890.11;107396;1272;22539;-66
2023/01/08 06:33:39;;;;;;;31.60;16.00;;;;;;;-6.57;100.00;100891.77;107368;1273;22947;-66
2023/01/08 06:36:07;;;;;;;33.50;16.20;;;;;;;-6.56;100.00;100890.83;107350;1271;22539;-66
2023/01/08 06:38:34;;;;;;;32.60;16.30;;;;;;;-6.56;100.00;100886.64;107274;1276;22726;-66
2023/01/08 06:41:05;;;;;;;35.90;17.90;;;;;;;-6.58;100.00;100891.70;107335;1277;25322;-66
2023/01/08 06:43:33;;;;;;;37.80;17.70;;;;;;;-6.53;100.00;100889.88;107345;1277;25331;-66
2023/01/08 06:46:03;;;;;;;32.30;16.50;;;;;;;-6.46;100.00;100894.09;107415;1273;22545;-66
2023/01/08 06:48:30;;;;;;;36.10;17.50;;;;;;;-6.47;100.00;100896.23;107415;1277;23942;-66
2023/01/08 06:51:01;;;;;;;32.80;17.30;;;;;;;-6.44;100.00;100898.33;107436;1278;22569;-66
2023/01/08 06:53:28;;;;;;;38.90;19.70;;;;;;;-6.40;100.00;100899.20;107450;1272;22616;-66
2023/01/08 06:55:55;;;;;;;35.70;18.70;;;;;;;-6.39;100.00;100895.19;107488;1277;24234;-66
2023/01/08 06:58:23;;;;;;;36.80;18.20;;;;;;;-6.38;100.00;100891.08;107477;1278;25352;-66
2023/01/08 07:00:50;;;;;;;36.10;18.30;;;;;;;-6.41;100.00;100888.63;107349;1277;22598;-66
2023/01/08 07:03:17;;;;;;;36.60;17.50;;;;;;;-6.41;100.00;100886.41;107460;1278;22570;-67
2023/01/08 07:05:46;;;;;;;37.50;17.90;;;;;;;-6.41;100.00;100893.63;107471;1277;22550;-68
2023/01/08 07:08:13;;;;;;;37.60;16.50;;;;;;;-6.42;100.00;100889.25;107434;1270;22515;-66
2023/01/08 07:10:41;;;;;;;36.30;18.50;;;;;;;-6.43;100.00;100892.70;107479;1276;23246;-66
2023/01/08 07:13:08;;;;;;;41.20;19.60;;;;;;;-6.38;100.00;100888.02;106316;1277;24207;-66
2023/01/08 07:15:36;;;;;;;42.70;21.50;;;;;;;-6.39;100.00;100886.70;106391;1276;25477;-66
2023/01/08 07:18:04;;;;;;;45.40;21.70;;;;;;;-6.42;100.00;100891.40;106403;1277;22782;-65
2023/01/08 07:20:32;;;;;;;42.30;21.20;;;;;;;-6.46;100.00;100891.58;106463;1272;24376;-66
2023/01/08 07:23:01;;;;;;;48.70;22.30;;;;;;;-6.50;100.00;100895.33;110294;1276;22306;-66
2023/01/08 07:25:28;;;;;;;40.60;20.60;;;;;;;-6.52;100.00;100899.19;110162;1277;22292;-66
2023/01/08 07:27:56;;;;;;;44.10;21.00;;;;;;;-6.47;100.00;100897.33;110221;1276;22841;-66
2023/01/08 07:30:23;;;;;;;45.40;21.60;;;;;;;-6.44;100.00;100896.17;110259;1276;22299;-66
2023/01/08 07:33:00;;;;;;;43.30;19.70;;;;;;;-6.50;100.00;100897.41;110321;1276;22227;-66
2023/01/08 07:35:27;;;;;;;47.40;20.90;;;;;;;-6.55;100.00;100900.27;110261;1276;22375;-67
2023/01/08 07:37:54;;;;;;;44.50;19.30;;;;;;;-6.53;100.00;100899.45;110260;1276;22326;-67
2023/01/08 07:40:21;;;;;;;48.20;21.30;;;;;;;-6.44;100.00;100900.61;110185;1276;22332;-67
2023/01/08 07:42:57;;;;;;;45.50;20.20;;;;;;;-6.45;100.00;100901.34;110262;1276;22662;-66
2023/01/08 07:45:24;;;;;;;44.90;20.50;;;;;;;-6.47;100.00;100899.94;110281;1275;23131;-67
2023/01/08 07:47:51;;;;;;;44.80;19.00;;;;;;;-6.48;100.00;100899.57;110332;1276;22245;-67
2023/01/08 07:50:18;;;;;;;42.80;20.00;;;;;;;-6.42;100.00;100899.70;110249;1276;22302;-66
2023/01/08 07:52:45;;;;;;;42.10;18.60;;;;;;;-6.35;100.00;100904.52;110135;1275;23245;-66
2023/01/08 12:27:16;;;;;;;32.40;15.90;;;;;;;-5.85;100.00;100799.11;104378;1304;545387;-70
2023/01/08 12:30:05;;;;;;;32.10;17.50;;;;;;;-5.71;100.00;100802.33;106584;1289;22549;-71
2023/01/08 12:32:36;;;;;;;28.80;15.40;;;;;;;-5.52;100.00;100799.33;106636;1289;23406;-71
2023/01/08 12:35:25;;;;;;;21.90;12.40;;;;;;;-5.35;100.00;100801.20;109351;1288;23225;-71
2023/01/08 12:37:58;;;;;;;19.70;11.10;;;;;;;-5.17;100.00;100799.90;109456;1289;23004;-72
2023/01/08 12:40:35;;;;;;;20.90;12.10;;;;;;;-5.06;100.00;100802.02;108378;1287;1392794;-73
2023/01/08 12:43:06;;;;;;;20.30;11.20;;;;;;;-4.98;100.00;100798.20;109448;1288;22227;-73
2023/01/08 12:45:43;;;;;;;21.90;11.70;;;;;;;-4.90;100.00;100785.95;109525;1285;22529;-73
2023/01/08 12:48:16;;;;;;;;;;;;;;;-4.81;100.00;100781.94;110187;1274;22883;-73
2023/01/08 12:51:00;;;;;;;23.80;12.00;;;;;;;-4.85;100.00;100782.30;110356;1274;23187;-72
2023/01/08 12:53:53;;;;;;;21.60;11.90;;;;;;;-4.97;100.00;100779.73;110261;1275;22209;-72
2023/01/08 12:56:21;;;;;;;20.80;13.20;;;;;;;-5.01;100.00;100788.61;110011;1275;22183;-73
2023/01/08 12:58:58;;;;;;;20.60;11.70;;;;;;;-5.04;100.00;100782.00;110369;1275;22185;-72
2023/01/08 13:01:26;;;;;;;19.60;11.60;;;;;;;-5.02;100.00;100777.05;110432;1274;22322;-72
2023/01/08 13:03:53;;;;;;;18.90;11.50;;;;;;;-4.97;100.00;100776.43;108022;1274;26579;-72
2023/01/08 13:06:20;;;;;;;18.30;10.30;;;;;;;-4.98;100.00;100780.56;107552;1275;25361;-72
2023/01/08 13:08:48;;;;;;;19.60;11.20;;;;;;;-5.01;100.00;100784.16;107285;1275;23876;-72
2023/01/08 13:11:29;;;;;;;21.50;11.90;;;;;;;-5.03;100.00;100789.90;107689;1275;22523;-71
2023/01/08 13:14:03;;;;;;;22.80;12.70;;;;;;;-5.06;100.00;100789.23;107734;1275;24216;-72
2023/01/08 13:16:35;;;;;;;18.60;10.90;;;;;;;-4.99;100.00;100788.73;107414;1275;22546;-71
2023/01/08 13:19:03;;;;;;;18.10;11.60;;;;;;;-4.94;100.00;100786.14;107297;1275;22642;-72
2023/01/08 13:21:40;;;;;;;20.50;11.60;;;;;;;-4.97;100.00;100781.02;107599;1275;22536;-71
2023/01/08 13:24:34;;;;;;;20.80;11.00;;;;;;;-5.02;100.00;100782.31;110219;1275;22352;-72
2023/01/08 13:27:13;;;;;;;20.60;12.30;;;;;;;-5.06;100.00;100779.70;110216;1275;22268;-71
2023/01/08 13:29:42;;;;;;;23.80;13.40;;;;;;;-5.08;100.00;100772.42;110369;1275;23179;-72
2023/01/08 13:32:45;;;;;;;18.90;10.90;;;;;;;-5.00;100.00;100763.70;110209;1275;22988;-72
2023/01/08 13:35:13;;;;;;;17.90;10.40;;;;;;;-4.95;100.00;100759.50;110213;1275;22221;-72
2023/01/08 13:37:48;;;;;;;18.20;11.10;;;;;;;-5.00;100.00;100753.86;110234;1275;22430;-72
2023/01/08 13:40:37;;;;;;;22.60;12.90;;;;;;;-5.02;100.00;100749.23;110162;1275;22217;-73
2023/01/08 13:43:37;;;;;;;25.90;12.50;;;;;;;-5.00;100.00;100745.33;110347;1275;22426;-73
2023/01/08 13:46:06;;;;;;;37.80;20.30;;;;;;;-4.98;100.00;100738.77;110269;1275;22949;-72
2023/01/08 13:48:39;;;;;;;20.80;12.00;;;;;;;-5.00;100.00;100737.17;110138;1275;22375;-71
2023/01/08 13:51:38;;;;;;;20.30;11.10;;;;;;;-5.05;100.00;100735.73;110176;1275;22264;-71
2023/01/08 13:54:11;;;;;;;19.80;10.70;;;;;;;-5.13;100.00;100733.98;110090;1276;23160;-72
2023/01/08 13:56:40;;;;;;;18.90;11.10;;;;;;;-5.19;100.00;100734.24;110285;1273;22298;-74
2023/01/08 13:59:19;;;;;;;20.70;11.90;;;;;;;-5.16;100.00;100733.64;110352;1275;22223;-72
2023/01/08 14:01:55;;;;;;;21.20;11.70;;;;;;;-5.15;100.00;100731.70;110181;1253;22863;-73
2023/01/08 14:04:23;;;;;;;19.70;11.60;;;;;;;-5.21;100.00;100731.48;110076;1276;22219;-71
2023/01/08 14:06:50;;;;;;;20.00;11.70;;;;;;;-5.28;100.00;100740.09;110124;1275;22283;-72
2023/01/08 14:09:24;;;;;;;23.70;12.90;;;;;;;-5.32;100.00;100741.50;110218;1275;22831;-73
2023/01/08 14:11:56;;;;;;;20.30;10.80;;;;;;;-5.30;100.00;100744.68;110219;1275;22278;-72
2023/01/08 14:14:23;;;;;;;19.80;10.70;;;;;;;-5.29;100.00;100744.63;110180;1275;22292;-73
2023/01/08 14:16:51;;;;;;;23.10;12.70;;;;;;;-5.32;100.00;100738.12;110429;1275;22293;-73
2023/01/08 14:19:23;;;;;;;24.20;12.40;;;;;;;-5.35;100.00;100736.81;110341;1275;22211;-73
2023/01/08 14:21:51;;;;;;;23.70;12.00;;;;;;;-5.39;100.00;100729.59;110176;1275;23643;-73
2023/01/08 14:24:18;;;;;;;23.80;11.90;;;;;;;-5.38;100.00;100730.77;110186;1275;22291;-72
2023/01/08 14:26:52;;;;;;;22.50;12.20;;;;;;;-5.35;100.00;100729.75;110372;1273;22242;-72
2023/01/08 14:29:21;;;;;;;22.90;12.40;;;;;;;-5.39;100.00;100729.06;110222;1275;22225;-72
2023/01/08 14:31:53;;;;;;;25.90;12.60;;;;;;;-5.46;100.00;100733.98;110208;1275;22278;-72
2023/01/08 14:34:21;;;;;;;25.10;13.10;;;;;;;-5.52;100.00;100727.13;110298;1275;23018;-72
2023/01/08 14:36:49;;;;;;;26.40;13.80;;;;;;;-5.55;100.00;100728.34;110170;1275;22299;-72
2023/01/08 14:39:23;;;;;;;25.20;12.80;;;;;;;-5.52;100.00;100724.45;110371;1275;23079;-73
2023/01/08 14:44:37;;;;;;;25.00;12.80;;;;;;;-5.66;100.00;100726.70;110161;1276;21994;-72
2023/01/08 14:47:16;;;;;;;24.50;12.00;;;;;;;-5.79;100.00;100731.70;108244;1275;24270;-71
2023/01/08 14:49:46;;;;;;;22.00;11.80;;;;;;;-5.91;100.00;100730.87;107499;1275;22537;-71
2023/01/08 14:52:17;;;;;;;23.90;12.10;;;;;;;-6.00;100.00;100725.70;107403;1275;22907;-71
2023/01/08 14:54:49;;;;;;;25.80;12.40;;;;;;;-6.00;100.00;100725.02;107314;1275;23413;-71
2023/01/08 14:57:17;;;;;;;26.50;12.80;;;;;;;-6.04;100.00;100722.53;107330;1272;22642;-71
2023/01/08 14:59:48;;;;;;;24.10;12.30;;;;;;;-6.15;100.00;100720.67;107516;1275;22577;-71
2023/01/08 15:02:23;;;;;;;26.20;12.90;;;;;;;-6.23;100.00;100711.98;110254;1275;22243;-72
2023/01/08 15:05:03;;;;;;;26.00;13.00;;;;;;;-6.33;100.00;100706.16;110325;1275;23215;-72
2023/01/08 15:07:30;;;;;;;25.90;13.10;;;;;;;-6.36;100.00;100711.20;110357;1273;22209;-72
2023/01/08 15:09:59;;;;;;;22.70;12.50;;;;;;;-6.33;100.00;100714.08;110206;1273;22234;-74
2023/01/08 15:12:29;;;;;;;33.90;14.00;;;;;;;-6.37;100.00;100712.35;110024;1274;23174;-74
2023/01/08 15:15:07;;;;;;;29.60;14.00;;;;;;;-6.44;100.00;100710.68;108856;1270;25521;-73
2023/01/08 15:17:34;;;;;;;33.60;17.50;;;;;;;-6.49;100.00;100707.47;107560;1270;23088;-75
2023/01/08 15:20:01;;;;;;;28.00;14.00;;;;;;;-6.56;100.00;100711.04;107424;1273;22559;-74
2023/01/08 15:22:29;;;;;;;25.70;12.70;;;;;;;-6.58;100.00;100708.99;107423;1275;22546;-74
2023/01/08 15:25:03;;;;;;;24.40;12.80;;;;;;;-6.53;100.00;100710.67;107387;1276;22579;-75
2023/01/08 15:27:31;;;;;;;28.10;13.30;;;;;;;-6.55;100.00;100711.70;107415;1275;22549;-75
2023/01/08 15:30:02;;;;;;;27.40;13.10;;;;;;;-6.63;100.00;100710.84;107479;1273;25563;-75
2023/01/08 15:32:32;;;;;;;28.50;13.50;;;;;;;-6.71;100.00;100710.10;107485;1275;23254;-74
2023/01/08 15:35:00;;;;;;;26.40;14.50;;;;;;;-6.77;100.00;100717.07;107552;1274;24337;-74
2023/01/08 15:37:29;;;;;;;30.10;14.00;;;;;;;-6.80;100.00;100717.53;107439;1269;25408;-73
2023/01/08 15:39:56;;;;;;;27.60;14.40;;;;;;;-6.77;100.00;100712.83;107330;1275;24251;-74
2023/01/08 15:45:16;;;;;;;28.00;13.10;;;;;;;-6.78;100.00;100706.36;107223;1275;22631;-73